N6713Y KDCA-KORD
Flight info
| Callsign | N6713Y |
|---|---|
| Flight time | N/A |
| Altitude | 24000 |
| Route | WYNGS5 RAMAY Q72 HACKS J149 ROD WATSN4 |
| Aircraft | C25C/M-SDE2E3FGIRW/L |
Departure
| Time | 2026-04-26 18:20 |
|---|---|
| Airport | Ronald Reagan Washington National Airport (KDCA) |
Arrival
| Time | N/A |
|---|---|
| Airport | Chicago O'Hare International Airport (KORD) |
| Time | Latitude | Longitude | Altitude | Speed | Heading |
|---|---|---|---|---|---|
| 2026-04-26 17:57 | 38.84874 | -77.04065 | 16 ft | 0 kts | 301° |
| 2026-04-26 18:07 | 38.84873 | -77.04062 | 16 ft | 2 kts | 301° |
| 2026-04-26 18:07 | 38.84863 | -77.04055 | 16 ft | 0 kts | 25° |
| 2026-04-26 18:14 | 38.84877 | -77.04020 | 15 ft | 9 kts | 79° |
| 2026-04-26 18:14 | 38.84877 | -77.04004 | 15 ft | 2 kts | 91° |
| 2026-04-26 18:15 | 38.84877 | -77.03945 | 14 ft | 10 kts | 90° |
| 2026-04-26 18:15 | 38.84876 | -77.03920 | 14 ft | 0 kts | 102° |
| 2026-04-26 18:15 | 38.84868 | -77.03901 | 14 ft | 7 kts | 134° |
| 2026-04-26 18:15 | 38.84807 | -77.03882 | 16 ft | 12 kts | 173° |
| 2026-04-26 18:16 | 38.84709 | -77.03868 | 18 ft | 17 kts | 174° |
| 2026-04-26 18:16 | 38.84388 | -77.03841 | 20 ft | 25 kts | 178° |
| 2026-04-26 18:16 | 38.84300 | -77.03838 | 20 ft | 0 kts | 173° |
| 2026-04-26 18:18 | 38.84244 | -77.03812 | 19 ft | 18 kts | 145° |
| 2026-04-26 18:19 | 38.84213 | -77.03683 | 17 ft | 9 kts | 15° |
| 2026-04-26 18:19 | 38.84246 | -77.03685 | 16 ft | 14 kts | 355° |
| 2026-04-26 18:19 | 38.84620 | -77.03719 | 17 ft | 107 kts | 356° |
| 2026-04-26 18:19 | 38.85638 | -77.03836 | 289 ft | 168 kts | 355° |
| 2026-04-26 18:20 | 38.87023 | -77.03998 | 731 ft | 227 kts | 358° |
| 2026-04-26 18:20 | 38.88721 | -77.04105 | 1669 ft | 256 kts | 354° |
| 2026-04-26 18:20 | 38.90143 | -77.05184 | 2193 ft | 238 kts | 307° |
| 2026-04-26 18:20 | 38.90644 | -77.06422 | 2538 ft | 227 kts | 299° |
| 2026-04-26 18:21 | 38.91263 | -77.08952 | 3207 ft | 225 kts | 283° |
| 2026-04-26 18:21 | 38.91787 | -77.10760 | 3704 ft | 213 kts | 316° |
| 2026-04-26 18:21 | 38.93005 | -77.11740 | 4212 ft | 207 kts | 333° |
| 2026-04-26 18:21 | 38.94186 | -77.12800 | 4723 ft | 206 kts | 330° |
| 2026-04-26 18:22 | 38.95420 | -77.13716 | 5223 ft | 204 kts | 334° |
| 2026-04-26 18:22 | 38.96502 | -77.14881 | 5720 ft | 209 kts | 306° |
| 2026-04-26 18:22 | 38.97008 | -77.16647 | 6223 ft | 213 kts | 288° |
| 2026-04-26 18:22 | 38.97347 | -77.18649 | 6737 ft | 248 kts | 285° |
| 2026-04-26 18:23 | 38.97677 | -77.20979 | 7243 ft | 278 kts | 284° |
| 2026-04-26 18:23 | 38.98056 | -77.23463 | 7753 ft | 279 kts | 285° |
| 2026-04-26 18:23 | 38.98430 | -77.25910 | 8264 ft | 280 kts | 285° |
| 2026-04-26 18:23 | 38.98822 | -77.28359 | 8778 ft | 280 kts | 285° |
| 2026-04-26 18:24 | 38.99197 | -77.30812 | 9296 ft | 280 kts | 284° |
| 2026-04-26 18:24 | 38.99292 | -77.33282 | 9804 ft | 285 kts | 265° |
| 2026-04-26 18:24 | 38.99025 | -77.35802 | 10302 ft | 283 kts | 268° |
| 2026-04-26 18:24 | 38.98850 | -77.38420 | 10784 ft | 307 kts | 267° |
| 2026-04-26 18:25 | 38.98600 | -77.41262 | 11279 ft | 330 kts | 266° |
| 2026-04-26 18:25 | 38.98351 | -77.44287 | 11785 ft | 350 kts | 267° |
| 2026-04-26 18:25 | 38.98073 | -77.47510 | 12306 ft | 364 kts | 267° |
| 2026-04-26 18:25 | 38.97808 | -77.50721 | 12824 ft | 358 kts | 267° |
| 2026-04-26 18:26 | 38.97536 | -77.53894 | 13343 ft | 356 kts | 267° |
| 2026-04-26 18:26 | 38.97278 | -77.57050 | 13868 ft | 355 kts | 267° |
| 2026-04-26 18:26 | 38.97004 | -77.60197 | 14338 ft | 354 kts | 267° |
| 2026-04-26 18:26 | 38.96743 | -77.63348 | 14818 ft | 353 kts | 267° |
| 2026-04-26 18:27 | 38.96471 | -77.66468 | 15297 ft | 352 kts | 267° |
| 2026-04-26 18:27 | 38.96210 | -77.69594 | 15781 ft | 351 kts | 268° |
| 2026-04-26 18:27 | 38.95939 | -77.72701 | 16275 ft | 350 kts | 267° |
| 2026-04-26 18:27 | 38.95677 | -77.75797 | 16775 ft | 348 kts | 268° |
| 2026-04-26 18:28 | 38.95406 | -77.78893 | 17285 ft | 348 kts | 267° |
| 2026-04-26 18:28 | 38.95143 | -77.81976 | 17786 ft | 347 kts | 268° |
| 2026-04-26 18:28 | 38.94884 | -77.85050 | 18316 ft | 345 kts | 270° |
| 2026-04-26 18:28 | 38.94974 | -77.88091 | 18781 ft | 340 kts | 278° |
| 2026-04-26 18:29 | 38.95084 | -77.91128 | 19258 ft | 341 kts | 275° |
| 2026-04-26 18:29 | 38.95165 | -77.94169 | 19730 ft | 340 kts | 276° |
| 2026-04-26 18:29 | 38.95270 | -77.97209 | 20207 ft | 341 kts | 276° |
| 2026-04-26 18:29 | 38.95377 | -78.00258 | 20700 ft | 342 kts | 276° |
| 2026-04-26 18:30 | 38.95481 | -78.03316 | 21201 ft | 342 kts | 275° |
| 2026-04-26 18:30 | 38.95576 | -78.06335 | 21706 ft | 343 kts | 276° |
| 2026-04-26 18:30 | 38.95680 | -78.09432 | 22227 ft | 343 kts | 275° |
| 2026-04-26 18:30 | 38.95777 | -78.12459 | 22752 ft | 344 kts | 275° |
| 2026-04-26 18:31 | 38.95878 | -78.15535 | 23291 ft | 344 kts | 275° |
| 2026-04-26 18:31 | 38.95975 | -78.18605 | 23821 ft | 344 kts | 275° |
| 2026-04-26 18:31 | 38.96080 | -78.21689 | 24116 ft | 349 kts | 276° |
| 2026-04-26 18:31 | 38.96350 | -78.24834 | 24168 ft | 360 kts | 278° |
| 2026-04-26 18:32 | 38.96547 | -78.28104 | 24173 ft | 372 kts | 276° |
| 2026-04-26 18:32 | 38.96749 | -78.31462 | 24181 ft | 382 kts | 277° |
| 2026-04-26 18:32 | 38.96999 | -78.34896 | 24185 ft | 390 kts | 277° |
| 2026-04-26 18:32 | 38.97259 | -78.38397 | 24184 ft | 396 kts | 277° |
| 2026-04-26 18:33 | 38.97503 | -78.41948 | 24184 ft | 402 kts | 277° |
| 2026-04-26 18:33 | 38.97745 | -78.45549 | 24183 ft | 405 kts | 277° |
| 2026-04-26 18:33 | 38.97995 | -78.49172 | 24182 ft | 408 kts | 277° |
| 2026-04-26 18:33 | 38.98247 | -78.52820 | 24183 ft | 411 kts | 277° |
| 2026-04-26 18:34 | 38.98497 | -78.56486 | 24181 ft | 413 kts | 277° |
| 2026-04-26 18:34 | 38.98748 | -78.60172 | 24183 ft | 414 kts | 277° |
| 2026-04-26 18:34 | 38.98995 | -78.63868 | 24183 ft | 415 kts | 277° |
| 2026-04-26 18:34 | 38.99247 | -78.67564 | 24182 ft | 416 kts | 277° |
| 2026-04-26 18:35 | 38.99494 | -78.71289 | 24179 ft | 417 kts | 277° |
| 2026-04-26 18:35 | 38.99743 | -78.75001 | 24181 ft | 417 kts | 277° |
| 2026-04-26 18:35 | 38.99985 | -78.78720 | 24183 ft | 418 kts | 277° |
| 2026-04-26 18:35 | 39.00237 | -78.82444 | 24184 ft | 418 kts | 277° |
| 2026-04-26 18:36 | 39.00478 | -78.86173 | 24187 ft | 418 kts | 277° |
| 2026-04-26 18:36 | 39.00724 | -78.89893 | 24188 ft | 419 kts | 277° |
| 2026-04-26 18:36 | 39.00958 | -78.93574 | 24188 ft | 419 kts | 277° |
| 2026-04-26 18:36 | 39.01209 | -78.97356 | 24189 ft | 419 kts | 277° |
| 2026-04-26 18:37 | 39.01442 | -79.01040 | 24192 ft | 419 kts | 276° |
| 2026-04-26 18:37 | 39.01685 | -79.04775 | 24191 ft | 419 kts | 276° |
| 2026-04-26 18:37 | 39.01917 | -79.08514 | 24182 ft | 419 kts | 276° |
| 2026-04-26 18:37 | 39.02160 | -79.12249 | 24182 ft | 419 kts | 276° |
| 2026-04-26 18:38 | 39.02391 | -79.15985 | 24180 ft | 419 kts | 276° |
| 2026-04-26 18:38 | 39.02630 | -79.19721 | 24180 ft | 419 kts | 276° |
| 2026-04-26 18:38 | 39.02858 | -79.23460 | 24180 ft | 419 kts | 276° |
| 2026-04-26 18:38 | 39.03095 | -79.27198 | 24180 ft | 419 kts | 276° |
| 2026-04-26 18:39 | 39.03323 | -79.30934 | 24169 ft | 419 kts | 276° |
| 2026-04-26 18:39 | 39.03555 | -79.34675 | 24168 ft | 419 kts | 276° |
| 2026-04-26 18:39 | 39.03780 | -79.38412 | 24169 ft | 419 kts | 276° |
| 2026-04-26 18:39 | 39.04012 | -79.42146 | 24170 ft | 419 kts | 276° |
| 2026-04-26 18:40 | 39.04234 | -79.45887 | 24144 ft | 419 kts | 276° |
| 2026-04-26 18:40 | 39.04462 | -79.49627 | 24143 ft | 419 kts | 276° |
| 2026-04-26 18:40 | 39.04683 | -79.53378 | 24143 ft | 420 kts | 276° |
| 2026-04-26 18:40 | 39.04910 | -79.57121 | 24144 ft | 420 kts | 276° |
| 2026-04-26 18:41 | 39.05128 | -79.60865 | 24125 ft | 420 kts | 276° |
| 2026-04-26 18:41 | 39.05350 | -79.64609 | 24124 ft | 420 kts | 276° |
| 2026-04-26 18:41 | 39.05569 | -79.68351 | 24123 ft | 419 kts | 276° |
| 2026-04-26 18:41 | 39.05787 | -79.72097 | 24111 ft | 420 kts | 276° |
| 2026-04-26 18:42 | 39.06003 | -79.75842 | 24105 ft | 419 kts | 276° |
| 2026-04-26 18:42 | 39.06221 | -79.79580 | 24105 ft | 420 kts | 276° |
| 2026-04-26 18:42 | 39.06433 | -79.83324 | 24103 ft | 420 kts | 276° |
| 2026-04-26 18:42 | 39.06647 | -79.87072 | 24102 ft | 420 kts | 276° |
| 2026-04-26 18:43 | 39.06858 | -79.90822 | 24102 ft | 420 kts | 276° |
| 2026-04-26 18:43 | 39.07069 | -79.94527 | 24102 ft | 420 kts | 276° |
| 2026-04-26 18:43 | 39.07278 | -79.98276 | 24102 ft | 420 kts | 276° |
| 2026-04-26 18:43 | 39.07486 | -80.02030 | 24100 ft | 420 kts | 276° |
| 2026-04-26 18:44 | 39.07695 | -80.05780 | 24101 ft | 420 kts | 276° |
| 2026-04-26 18:44 | 39.07898 | -80.09533 | 24109 ft | 420 kts | 276° |
| 2026-04-26 18:44 | 39.08108 | -80.13282 | 24110 ft | 420 kts | 276° |
| 2026-04-26 18:44 | 39.08308 | -80.17044 | 24105 ft | 420 kts | 276° |
| 2026-04-26 18:45 | 39.08514 | -80.20786 | 24109 ft | 420 kts | 276° |
| 2026-04-26 18:45 | 39.08711 | -80.24548 | 24110 ft | 420 kts | 276° |
| 2026-04-26 18:45 | 39.08917 | -80.28303 | 24110 ft | 420 kts | 276° |
| 2026-04-26 18:45 | 39.09115 | -80.32055 | 24109 ft | 421 kts | 275° |
| 2026-04-26 18:46 | 39.09311 | -80.35814 | 24110 ft | 421 kts | 275° |
| 2026-04-26 18:46 | 39.09506 | -80.39571 | 24109 ft | 421 kts | 275° |
| 2026-04-26 18:46 | 39.09707 | -80.43326 | 24108 ft | 421 kts | 276° |
| 2026-04-26 18:46 | 39.09898 | -80.47087 | 24106 ft | 421 kts | 275° |
| 2026-04-26 18:47 | 39.10093 | -80.50855 | 24098 ft | 421 kts | 275° |
| 2026-04-26 18:47 | 39.10282 | -80.54613 | 24092 ft | 421 kts | 275° |
| 2026-04-26 18:47 | 39.10478 | -80.58367 | 24092 ft | 421 kts | 275° |
| 2026-04-26 18:47 | 39.10664 | -80.62129 | 24092 ft | 421 kts | 275° |
| 2026-04-26 18:48 | 39.10855 | -80.65895 | 24093 ft | 421 kts | 275° |
| 2026-04-26 18:48 | 39.11040 | -80.69662 | 24097 ft | 421 kts | 275° |
| 2026-04-26 18:48 | 39.11230 | -80.73432 | 24092 ft | 421 kts | 275° |
| 2026-04-26 18:48 | 39.11412 | -80.77205 | 24097 ft | 421 kts | 275° |
| 2026-04-26 18:49 | 39.11600 | -80.80977 | 24095 ft | 421 kts | 275° |
| 2026-04-26 18:49 | 39.11778 | -80.84735 | 24095 ft | 421 kts | 275° |
| 2026-04-26 18:49 | 39.11960 | -80.88459 | 24095 ft | 421 kts | 275° |
| 2026-04-26 18:49 | 39.12140 | -80.92225 | 24097 ft | 421 kts | 275° |
| 2026-04-26 18:50 | 39.12320 | -80.95990 | 24097 ft | 421 kts | 275° |
| 2026-04-26 18:50 | 39.12496 | -80.99757 | 24099 ft | 421 kts | 275° |
| 2026-04-26 18:50 | 39.12674 | -81.03523 | 24097 ft | 421 kts | 275° |
| 2026-04-26 18:50 | 39.12790 | -81.06072 | 24099 ft | 421 kts | 275° |
| 2026-04-26 18:51 | 39.13152 | -81.09798 | 24094 ft | 419 kts | 287° |
| 2026-04-26 18:51 | 39.14299 | -81.13225 | 24110 ft | 416 kts | 298° |
| 2026-04-26 18:51 | 39.15718 | -81.16467 | 24113 ft | 416 kts | 302° |
| 2026-04-26 18:51 | 39.17227 | -81.19649 | 24122 ft | 416 kts | 302° |
| 2026-04-26 18:52 | 39.18632 | -81.22917 | 24131 ft | 416 kts | 297° |
| 2026-04-26 18:52 | 39.19905 | -81.26271 | 24133 ft | 416 kts | 297° |
| 2026-04-26 18:52 | 39.21234 | -81.29582 | 24131 ft | 417 kts | 299° |
| 2026-04-26 18:52 | 39.22619 | -81.32875 | 24143 ft | 417 kts | 299° |
| 2026-04-26 18:53 | 39.23983 | -81.36175 | 24146 ft | 417 kts | 298° |
| 2026-04-26 18:53 | 39.25325 | -81.39488 | 24147 ft | 417 kts | 298° |
| 2026-04-26 18:53 | 39.26648 | -81.42762 | 24151 ft | 416 kts | 298° |
| 2026-04-26 18:53 | 39.28000 | -81.46070 | 24152 ft | 416 kts | 298° |
| 2026-04-26 18:54 | 39.29365 | -81.49409 | 24153 ft | 415 kts | 298° |
| 2026-04-26 18:54 | 39.30704 | -81.52708 | 24157 ft | 414 kts | 298° |
| 2026-04-26 18:54 | 39.32028 | -81.55970 | 24152 ft | 414 kts | 298° |
| 2026-04-26 18:54 | 39.33364 | -81.59267 | 24120 ft | 414 kts | 298° |
| 2026-04-26 18:55 | 39.34702 | -81.62564 | 24121 ft | 414 kts | 298° |
| 2026-04-26 18:55 | 39.36036 | -81.65862 | 24120 ft | 414 kts | 298° |
| 2026-04-26 18:55 | 39.37371 | -81.69162 | 24120 ft | 414 kts | 297° |
| 2026-04-26 18:55 | 39.38704 | -81.72464 | 24119 ft | 414 kts | 298° |
| 2026-04-26 18:56 | 39.40040 | -81.75774 | 24122 ft | 414 kts | 298° |
| 2026-04-26 18:56 | 39.41372 | -81.79082 | 24129 ft | 414 kts | 298° |
| 2026-04-26 18:56 | 39.42702 | -81.82382 | 24126 ft | 414 kts | 297° |
| 2026-04-26 18:56 | 39.44026 | -81.85678 | 24127 ft | 414 kts | 298° |
| 2026-04-26 18:57 | 39.45355 | -81.88981 | 24124 ft | 413 kts | 298° |
| 2026-04-26 18:57 | 39.46230 | -81.91171 | 24120 ft | 413 kts | 298° |
| 2026-04-26 18:57 | 39.47989 | -81.95550 | 24124 ft | 413 kts | 297° |
| 2026-04-26 18:57 | 39.49308 | -81.98851 | 24128 ft | 413 kts | 298° |
| 2026-04-26 18:58 | 39.50632 | -82.02153 | 24132 ft | 413 kts | 297° |
| 2026-04-26 18:58 | 39.51949 | -82.05458 | 24131 ft | 413 kts | 298° |
| 2026-04-26 18:58 | 39.53271 | -82.08762 | 24127 ft | 413 kts | 297° |
| 2026-04-26 18:58 | 39.54589 | -82.12075 | 24130 ft | 414 kts | 297° |
| 2026-04-26 18:59 | 39.55910 | -82.15385 | 24129 ft | 413 kts | 297° |
| 2026-04-26 18:59 | 39.57225 | -82.18698 | 24130 ft | 413 kts | 297° |
| 2026-04-26 18:59 | 39.58545 | -82.22013 | 24130 ft | 413 kts | 297° |
| 2026-04-26 18:59 | 39.59857 | -82.25326 | 24133 ft | 413 kts | 297° |
| 2026-04-26 19:00 | 39.61171 | -82.28630 | 24134 ft | 412 kts | 297° |
| 2026-04-26 19:00 | 39.62479 | -82.31943 | 24134 ft | 412 kts | 297° |
| 2026-04-26 19:00 | 39.63788 | -82.35245 | 24134 ft | 412 kts | 297° |
| 2026-04-26 19:00 | 39.65095 | -82.38558 | 24134 ft | 412 kts | 297° |
| 2026-04-26 19:01 | 39.66404 | -82.41869 | 24134 ft | 412 kts | 297° |
| 2026-04-26 19:01 | 39.67709 | -82.45181 | 24135 ft | 412 kts | 297° |
| 2026-04-26 19:01 | 39.69013 | -82.48490 | 24136 ft | 412 kts | 297° |
| 2026-04-26 19:01 | 39.70313 | -82.51798 | 24159 ft | 412 kts | 297° |